sensor_id;sensor_type;location;lat;lon;timestamp;pressure;altitude;pressure_sealevel;temperature;humidity
30421;BME280;17218;54.070;10.012;2024-03-07T00:00:22;102712.88;;;5.90;100.00
30421;BME280;17218;54.070;10.012;2024-03-07T00:02:49;102710.38;;;5.91;100.00
30421;BME280;17218;54.070;10.012;2024-03-07T00:05:17;102717.88;;;5.87;100.00
30421;BME280;17218;54.070;10.012;2024-03-07T00:07:44;102723.97;;;5.89;100.00
30421;BME280;17218;54.070;10.012;2024-03-07T00:10:10;102719.22;;;5.78;100.00
30421;BME280;17218;54.070;10.012;2024-03-07T00:12:38;102720.03;;;5.77;100.00
30421;BME280;17218;54.070;10.012;2024-03-07T00:15:06;102725.53;;;5.85;100.00
30421;BME280;17218;54.070;10.012;2024-03-07T00:17:35;102711.88;;;5.86;100.00
30421;BME280;17218;54.070;10.012;2024-03-07T00:20:02;102714.44;;;5.86;100.00
30421;BME280;17218;54.070;10.012;2024-03-07T00:22:29;102719.44;;;5.83;100.00
30421;BME280;17218;54.070;10.012;2024-03-07T00:24:56;102728.09;;;5.85;100.00
30421;BME280;17218;54.070;10.012;2024-03-07T00:27:22;102727.13;;;5.83;100.00
30421;BME280;17218;54.070;10.012;2024-03-07T00:29:49;102725.28;;;5.79;100.00
30421;BME280;17218;54.070;10.012;2024-03-07T00:32:19;102726.78;;;5.75;100.00
30421;BME280;17218;54.070;10.012;2024-03-07T00:34:47;102724.38;;;5.78;100.00
30421;BME280;17218;54.070;10.012;2024-03-07T00:37:13;102717.03;;;5.68;100.00
30421;BME280;17218;54.070;10.012;2024-03-07T00:39:40;102719.13;;;5.57;100.00
30421;BME280;17218;54.070;10.012;2024-03-07T00:42:06;102709.88;;;5.60;100.00
30421;BME280;17218;54.070;10.012;2024-03-07T00:44:33;102719.28;;;5.60;100.00
30421;BME280;17218;54.070;10.012;2024-03-07T00:47:00;102712.53;;;5.62;100.00
30421;BME280;17218;54.070;10.012;2024-03-07T00:49:27;102708.47;;;5.67;100.00
30421;BME280;17218;54.070;10.012;2024-03-07T00:51:55;102711.09;;;5.69;100.00
30421;BME280;17218;54.070;10.012;2024-03-07T00:54:21;102701.47;;;5.65;100.00
30421;BME280;17218;54.070;10.012;2024-03-07T00:56:48;102710.88;;;5.64;100.00
30421;BME280;17218;54.070;10.012;2024-03-07T00:59:15;102709.72;;;5.57;100.00
30421;BME280;17218;54.070;10.012;2024-03-07T01:01:42;102705.53;;;5.59;100.00
30421;BME280;17218;54.070;10.012;2024-03-07T01:04:08;102705.41;;;5.56;100.00
30421;BME280;17218;54.070;10.012;2024-03-07T01:06:35;102693.16;;;5.51;100.00
30421;BME280;17218;54.070;10.012;2024-03-07T01:09:04;102701.72;;;5.51;100.00
30421;BME280;17218;54.070;10.012;2024-03-07T01:11:38;102706.88;;;5.51;100.00
30421;BME280;17218;54.070;10.012;2024-03-07T01:14:04;102698.00;;;5.44;100.00
30421;BME280;17218;54.070;10.012;2024-03-07T01:16:31;102698.66;;;5.40;100.00
30421;BME280;17218;54.070;10.012;2024-03-07T01:18:57;102693.94;;;5.30;100.00
30421;BME280;17218;54.070;10.012;2024-03-07T01:21:24;102704.13;;;5.28;100.00
30421;BME280;17218;54.070;10.012;2024-03-07T01:23:51;102692.09;;;5.27;100.00
30421;BME280;17218;54.070;10.012;2024-03-07T01:26:19;102703.69;;;5.37;100.00
30421;BME280;17218;54.070;10.012;2024-03-07T01:28:45;102699.38;;;5.36;100.00
30421;BME280;17218;54.070;10.012;2024-03-07T01:31:11;102699.78;;;5.27;100.00
30421;BME280;17218;54.070;10.012;2024-03-07T01:33:38;102703.66;;;5.17;100.00
30421;BME280;17218;54.070;10.012;2024-03-07T01:36:05;102692.47;;;5.17;100.00
30421;BME280;17218;54.070;10.012;2024-03-07T01:38:31;102699.53;;;5.21;100.00
30421;BME280;17218;54.070;10.012;2024-03-07T01:40:58;102695.09;;;5.18;100.00
30421;BME280;17218;54.070;10.012;2024-03-07T01:43:26;102697.69;;;5.18;100.00
30421;BME280;17218;54.070;10.012;2024-03-07T01:45:54;102693.94;;;5.11;100.00
30421;BME280;17218;54.070;10.012;2024-03-07T01:48:26;102692.94;;;5.08;100.00
30421;BME280;17218;54.070;10.012;2024-03-07T01:50:54;102686.19;;;5.10;100.00
30421;BME280;17218;54.070;10.012;2024-03-07T01:53:21;102691.75;;;5.19;100.00
30421;BME280;17218;54.070;10.012;2024-03-07T01:55:48;102689.59;;;5.10;100.00
30421;BME280;17218;54.070;10.012;2024-03-07T01:58:18;102686.75;;;5.04;100.00
30421;BME280;17218;54.070;10.012;2024-03-07T02:00:46;102703.19;;;5.08;100.00
30421;BME280;17218;54.070;10.012;2024-03-07T02:03:13;102693.00;;;5.09;100.00
30421;BME280;17218;54.070;10.012;2024-03-07T02:05:39;102684.13;;;5.03;100.00
30421;BME280;17218;54.070;10.012;2024-03-07T02:08:06;102698.00;;;5.06;100.00
30421;BME280;17218;54.070;10.012;2024-03-07T02:10:32;102689.84;;;5.15;100.00
30421;BME280;17218;54.070;10.012;2024-03-07T02:12:59;102688.88;;;5.13;100.00
30421;BME280;17218;54.070;10.012;2024-03-07T02:15:26;102683.03;;;5.16;100.00
30421;BME280;17218;54.070;10.012;2024-03-07T02:17:54;102689.19;;;5.19;100.00
30421;BME280;17218;54.070;10.012;2024-03-07T02:20:20;102684.91;;;5.20;100.00
30421;BME280;17218;54.070;10.012;2024-03-07T02:22:48;102691.88;;;5.22;100.00
30421;BME280;17218;54.070;10.012;2024-03-07T02:25:16;102685.78;;;5.20;100.00
30421;BME280;17218;54.070;10.012;2024-03-07T02:27:42;102690.50;;;5.11;100.00
30421;BME280;17218;54.070;10.012;2024-03-07T02:30:11;102681.31;;;5.16;100.00
30421;BME280;17218;54.070;10.012;2024-03-07T02:32:38;102682.31;;;5.20;100.00
30421;BME280;17218;54.070;10.012;2024-03-07T02:35:05;102676.03;;;5.13;100.00
30421;BME280;17218;54.070;10.012;2024-03-07T02:37:33;102682.06;;;5.13;100.00
30421;BME280;17218;54.070;10.012;2024-03-07T02:40:01;102689.13;;;5.18;100.00
30421;BME280;17218;54.070;10.012;2024-03-07T02:42:28;102684.91;;;5.20;100.00
30421;BME280;17218;54.070;10.012;2024-03-07T02:44:54;102679.44;;;5.12;100.00
30421;BME280;17218;54.070;10.012;2024-03-07T02:47:21;102682.34;;;5.01;100.00
30421;BME280;17218;54.070;10.012;2024-03-07T02:49:49;102679.00;;;5.03;100.00
30421;BME280;17218;54.070;10.012;2024-03-07T02:52:15;102684.72;;;4.97;100.00
30421;BME280;17218;54.070;10.012;2024-03-07T02:54:42;102674.88;;;4.88;100.00
30421;BME280;17218;54.070;10.012;2024-03-07T02:57:10;102686.03;;;4.88;100.00
30421;BME280;17218;54.070;10.012;2024-03-07T02:59:36;102672.31;;;4.88;100.00
30421;BME280;17218;54.070;10.012;2024-03-07T03:02:03;102678.91;;;4.83;100.00
30421;BME280;17218;54.070;10.012;2024-03-07T03:04:31;102679.66;;;4.80;100.00
30421;BME280;17218;54.070;10.012;2024-03-07T03:06:58;102680.69;;;4.84;100.00
30421;BME280;17218;54.070;10.012;2024-03-07T03:09:24;102674.88;;;4.88;100.00
30421;BME280;17218;54.070;10.012;2024-03-07T03:11:52;102681.47;;;4.83;100.00
30421;BME280;17218;54.070;10.012;2024-03-07T03:14:20;102690.94;;;4.65;100.00
30421;BME280;17218;54.070;10.012;2024-03-07T03:16:47;102679.06;;;4.49;100.00
30421;BME280;17218;54.070;10.012;2024-03-07T03:19:14;102676.88;;;4.40;100.00
30421;BME280;17218;54.070;10.012;2024-03-07T03:21:40;102675.78;;;4.35;100.00
30421;BME280;17218;54.070;10.012;2024-03-07T03:24:08;102680.69;;;4.31;100.00
30421;BME280;17218;54.070;10.012;2024-03-07T03:26:34;102679.66;;;4.27;100.00
30421;BME280;17218;54.070;10.012;2024-03-07T03:29:00;102682.22;;;4.27;100.00
30421;BME280;17218;54.070;10.012;2024-03-07T03:31:29;102683.41;;;4.34;100.00
30421;BME280;17218;54.070;10.012;2024-03-07T03:33:55;102679.09;;;4.33;100.00
30421;BME280;17218;54.070;10.012;2024-03-07T03:36:22;102677.94;;;4.27;100.00
30421;BME280;17218;54.070;10.012;2024-03-07T03:38:50;102683.59;;;4.20;100.00
30421;BME280;17218;54.070;10.012;2024-03-07T03:41:16;102690.91;;;4.12;100.00
30421;BME280;17218;54.070;10.012;2024-03-07T03:43:43;102682.25;;;4.10;100.00
30421;BME280;17218;54.070;10.012;2024-03-07T03:46:10;102688.72;;;4.03;100.00
30421;BME280;17218;54.070;10.012;2024-03-07T03:48:39;102686.72;;;3.98;100.00
30421;BME280;17218;54.070;10.012;2024-03-07T03:51:06;102691.56;;;3.91;100.00
30421;BME280;17218;54.070;10.012;2024-03-07T03:53:33;102691.31;;;3.87;100.00
30421;BME280;17218;54.070;10.012;2024-03-07T03:56:00;102686.44;;;3.75;100.00
30421;BME280;17218;54.070;10.012;2024-03-07T03:58:26;102687.94;;;3.71;100.00
30421;BME280;17218;54.070;10.012;2024-03-07T04:00:53;102685.88;;;3.64;100.00
30421;BME280;17218;54.070;10.012;2024-03-07T04:03:19;102689.75;;;3.57;100.00
30421;BME280;17218;54.070;10.012;2024-03-07T04:05:47;102677.75;;;3.56;100.00
30421;BME280;17218;54.070;10.012;2024-03-07T04:08:14;102686.06;;;3.52;100.00
30421;BME280;17218;54.070;10.012;2024-03-07T04:10:40;102675.03;;;3.53;100.00
30421;BME280;17218;54.070;10.012;2024-03-07T04:13:07;102683.84;;;3.58;100.00
30421;BME280;17218;54.070;10.012;2024-03-07T04:15:33;102678.16;;;3.47;100.00
30421;BME280;17218;54.070;10.012;2024-03-07T04:18:00;102668.78;;;3.31;100.00
30421;BME280;17218;54.070;10.012;2024-03-07T04:20:27;102669.63;;;3.31;100.00
30421;BME280;17218;54.070;10.012;2024-03-07T04:22:54;102683.50;;;3.35;100.00
30421;BME280;17218;54.070;10.012;2024-03-07T04:25:21;102673.78;;;3.29;100.00
30421;BME280;17218;54.070;10.012;2024-03-07T04:27:50;102684.59;;;3.24;100.00
30421;BME280;17218;54.070;10.012;2024-03-07T04:30:16;102684.66;;;3.08;100.00
30421;BME280;17218;54.070;10.012;2024-03-07T04:32:43;102678.72;;;3.09;100.00
30421;BME280;17218;54.070;10.012;2024-03-07T04:35:09;102680.88;;;3.18;100.00
30421;BME280;17218;54.070;10.012;2024-03-07T04:37:36;102671.19;;;3.13;100.00
30421;BME280;17218;54.070;10.012;2024-03-07T04:40:05;102677.13;;;3.12;100.00
30421;BME280;17218;54.070;10.012;2024-03-07T04:42:40;102675.19;;;3.07;100.00
30421;BME280;17218;54.070;10.012;2024-03-07T04:45:08;102680.31;;;3.07;100.00
30421;BME280;17218;54.070;10.012;2024-03-07T04:47:36;102671.94;;;2.95;100.00
30421;BME280;17218;54.070;10.012;2024-03-07T04:50:03;102668.50;;;2.94;100.00
30421;BME280;17218;54.070;10.012;2024-03-07T04:52:30;102671.72;;;2.90;100.00
30421;BME280;17218;54.070;10.012;2024-03-07T04:54:57;102667.72;;;2.80;100.00
30421;BME280;17218;54.070;10.012;2024-03-07T05:04:08;102669.53;;;2.66;100.00
30421;BME280;17218;54.070;10.012;2024-03-07T05:06:35;102667.91;;;2.68;100.00
30421;BME280;17218;54.070;10.012;2024-03-07T05:09:02;102676.56;;;2.70;100.00
30421;BME280;17218;54.070;10.012;2024-03-07T05:11:28;102672.94;;;2.67;100.00
30421;BME280;17218;54.070;10.012;2024-03-07T05:13:55;102668.09;;;2.71;100.00
30421;BME280;17218;54.070;10.012;2024-03-07T05:16:21;102676.13;;;2.78;100.00
30421;BME280;17218;54.070;10.012;2024-03-07T05:18:48;102669.41;;;2.80;100.00
30421;BME280;17218;54.070;10.012;2024-03-07T05:21:17;102674.28;;;2.75;100.00
30421;BME280;17218;54.070;10.012;2024-03-07T05:24:06;102678.25;;;2.70;100.00
30421;BME280;17218;54.070;10.012;2024-03-07T05:26:33;102680.63;;;2.67;100.00
30421;BME280;17218;54.070;10.012;2024-03-07T05:29:03;102690.50;;;2.76;100.00
30421;BME280;17218;54.070;10.012;2024-03-07T05:31:32;102685.91;;;2.85;100.00
30421;BME280;17218;54.070;10.012;2024-03-07T05:34:01;102691.22;;;2.73;100.00
30421;BME280;17218;54.070;10.012;2024-03-07T05:36:30;102679.56;;;2.78;100.00
30421;BME280;17218;54.070;10.012;2024-03-07T05:38:57;102689.97;;;2.81;100.00
30421;BME280;17218;54.070;10.012;2024-03-07T05:41:24;102682.72;;;2.89;100.00
30421;BME280;17218;54.070;10.012;2024-03-07T05:43:55;102692.81;;;2.71;100.00
30421;BME280;17218;54.070;10.012;2024-03-07T05:46:21;102699.16;;;2.78;100.00
30421;BME280;17218;54.070;10.012;2024-03-07T05:48:48;102697.91;;;2.86;100.00
30421;BME280;17218;54.070;10.012;2024-03-07T05:51:17;102690.69;;;2.94;100.00
30421;BME280;17218;54.070;10.012;2024-03-07T05:53:45;102693.63;;;3.02;100.00
30421;BME280;17218;54.070;10.012;2024-03-07T05:56:12;102697.19;;;3.04;100.00
30421;BME280;17218;54.070;10.012;2024-03-07T05:58:39;102690.75;;;2.95;100.00
30421;BME280;17218;54.070;10.012;2024-03-07T06:01:06;102700.91;;;2.94;100.00
30421;BME280;17218;54.070;10.012;2024-03-07T06:03:33;102696.47;;;3.06;100.00
30421;BME280;17218;54.070;10.012;2024-03-07T06:05:59;102694.00;;;3.08;100.00
30421;BME280;17218;54.070;10.012;2024-03-07T06:08:26;102690.00;;;3.13;100.00
30421;BME280;17218;54.070;10.012;2024-03-07T06:10:54;102690.59;;;3.24;100.00
30421;BME280;17218;54.070;10.012;2024-03-07T06:13:21;102691.63;;;3.28;100.00
30421;BME280;17218;54.070;10.012;2024-03-07T06:15:47;102689.28;;;3.31;100.00
30421;BME280;17218;54.070;10.012;2024-03-07T06:18:14;102696.06;;;3.30;100.00
30421;BME280;17218;54.070;10.012;2024-03-07T06:20:41;102701.25;;;3.32;100.00
30421;BME280;17218;54.070;10.012;2024-03-07T06:23:07;102701.66;;;3.23;100.00
30421;BME280;17218;54.070;10.012;2024-03-07T06:25:36;102697.66;;;3.28;100.00
30421;BME280;17218;54.070;10.012;2024-03-07T06:28:13;102714.22;;;3.35;100.00
30421;BME280;17218;54.070;10.012;2024-03-07T06:30:41;102710.53;;;3.30;100.00
30421;BME280;17218;54.070;10.012;2024-03-07T06:33:08;102710.63;;;3.31;100.00
30421;BME280;17218;54.070;10.012;2024-03-07T06:35:35;102704.41;;;3.43;100.00
30421;BME280;17218;54.070;10.012;2024-03-07T06:38:02;102712.09;;;3.43;100.00
30421;BME280;17218;54.070;10.012;2024-03-07T06:40:29;102715.56;;;3.43;100.00
30421;BME280;17218;54.070;10.012;2024-03-07T06:42:55;102702.28;;;3.51;100.00
30421;BME280;17218;54.070;10.012;2024-03-07T06:45:23;102714.94;;;3.48;100.00
30421;BME280;17218;54.070;10.012;2024-03-07T06:47:50;102713.22;;;3.48;100.00
30421;BME280;17218;54.070;10.012;2024-03-07T06:50:17;102703.47;;;3.57;100.00
30421;BME280;17218;54.070;10.012;2024-03-07T06:52:45;102697.31;;;3.70;100.00
30421;BME280;17218;54.070;10.012;2024-03-07T06:55:12;102704.53;;;3.78;100.00
30421;BME280;17218;54.070;10.012;2024-03-07T06:57:40;102702.69;;;3.75;100.00
30421;BME280;17218;54.070;10.012;2024-03-07T07:00:08;102703.34;;;3.88;100.00
30421;BME280;17218;54.070;10.012;2024-03-07T07:02:38;102701.66;;;3.88;100.00
30421;BME280;17218;54.070;10.012;2024-03-07T07:05:06;102703.63;;;3.94;100.00
30421;BME280;17218;54.070;10.012;2024-03-07T07:07:36;102707.44;;;4.01;100.00
30421;BME280;17218;54.070;10.012;2024-03-07T07:10:04;102702.28;;;4.01;100.00
30421;BME280;17218;54.070;10.012;2024-03-07T07:12:32;102701.56;;;4.03;100.00
30421;BME280;17218;54.070;10.012;2024-03-07T07:15:00;102694.25;;;4.11;100.00
30421;BME280;17218;54.070;10.012;2024-03-07T07:17:26;102698.19;;;4.21;100.00
30421;BME280;17218;54.070;10.012;2024-03-07T07:19:56;102709.41;;;4.23;100.00
30421;BME280;17218;54.070;10.012;2024-03-07T07:22:23;102703.53;;;4.26;100.00
30421;BME280;17218;54.070;10.012;2024-03-07T07:24:49;102702.56;;;4.24;100.00
30421;BME280;17218;54.070;10.012;2024-03-07T07:27:16;102706.75;;;4.22;100.00
30421;BME280;17218;54.070;10.012;2024-03-07T07:29:43;102702.41;;;4.37;100.00
30421;BME280;17218;54.070;10.012;2024-03-07T07:32:10;102704.63;;;4.48;100.00
30421;BME280;17218;54.070;10.012;2024-03-07T07:34:37;102696.19;;;4.50;100.00
30421;BME280;17218;54.070;10.012;2024-03-07T07:37:05;102700.78;;;4.74;100.00
30421;BME280;17218;54.070;10.012;2024-03-07T07:39:34;102699.75;;;4.89;100.00
30421;BME280;17218;54.070;10.012;2024-03-07T07:42:00;102695.06;;;4.98;100.00
30421;BME280;17218;54.070;10.012;2024-03-07T07:44:27;102696.00;;;5.00;100.00
30421;BME280;17218;54.070;10.012;2024-03-07T07:46:54;102686.19;;;5.10;100.00
30421;BME280;17218;54.070;10.012;2024-03-07T07:49:20;102689.19;;;5.19;100.00
30421;BME280;17218;54.070;10.012;2024-03-07T07:51:47;102687.31;;;5.35;100.00
30421;BME280;17218;54.070;10.012;2024-03-07T07:54:15;102675.16;;;5.51;100.00
30421;BME280;17218;54.070;10.012;2024-03-07T07:56:43;102674.81;;;5.63;100.00
30421;BME280;17218;54.070;10.012;2024-03-07T07:59:09;102672.78;;;5.75;100.00
30421;BME280;17218;54.070;10.012;2024-03-07T08:01:36;102674.06;;;5.85;100.00
30421;BME280;17218;54.070;10.012;2024-03-07T08:04:03;102676.31;;;5.77;100.00
30421;BME280;17218;54.070;10.012;2024-03-07T08:06:29;102685.13;;;5.82;100.00
30421;BME280;17218;54.070;10.012;2024-03-07T08:08:56;102670.38;;;5.78;100.00
30421;BME280;17218;54.070;10.012;2024-03-07T08:11:24;102682.25;;;5.96;100.00
30421;BME280;17218;54.070;10.012;2024-03-07T08:13:51;102684.34;;;6.05;100.00
30421;BME280;17218;54.070;10.012;2024-03-07T08:16:17;102672.19;;;6.20;100.00
30421;BME280;17218;54.070;10.012;2024-03-07T08:18:44;102674.81;;;6.22;100.00
30421;BME280;17218;54.070;10.012;2024-03-07T08:21:11;102675.50;;;6.18;100.00
30421;BME280;17218;54.070;10.012;2024-03-07T08:23:37;102680.19;;;6.07;100.00
30421;BME280;17218;54.070;10.012;2024-03-07T08:26:04;102677.78;;;5.92;100.00
30421;BME280;17218;54.070;10.012;2024-03-07T08:28:32;102669.56;;;5.99;100.00
30421;BME280;17218;54.070;10.012;2024-03-07T08:30:59;102671.28;;;6.00;100.00
30421;BME280;17218;54.070;10.012;2024-03-07T08:33:25;102672.06;;;6.17;100.00
30421;BME280;17218;54.070;10.012;2024-03-07T08:35:52;102674.25;;;6.29;100.00
30421;BME280;17218;54.070;10.012;2024-03-07T08:38:19;102668.81;;;6.43;100.00
30421;BME280;17218;54.070;10.012;2024-03-07T08:40:46;102664.88;;;6.53;100.00
30421;BME280;17218;54.070;10.012;2024-03-07T08:43:12;102675.28;;;6.54;100.00
30421;BME280;17218;54.070;10.012;2024-03-07T08:45:41;102666.72;;;6.55;100.00
30421;BME280;17218;54.070;10.012;2024-03-07T08:48:07;102674.56;;;6.59;100.00
30421;BME280;17218;54.070;10.012;2024-03-07T08:50:35;102666.59;;;6.52;100.00
30421;BME280;17218;54.070;10.012;2024-03-07T08:53:03;102659.88;;;6.56;100.00
30421;BME280;17218;54.070;10.012;2024-03-07T08:55:30;102667.41;;;6.51;100.00
30421;BME280;17218;54.070;10.012;2024-03-07T08:57:57;102660.81;;;6.37;100.00
30421;BME280;17218;54.070;10.012;2024-03-07T09:00:23;102673.75;;;6.17;100.00
30421;BME280;17218;54.070;10.012;2024-03-07T09:02:53;102663.78;;;6.25;100.00
30421;BME280;17218;54.070;10.012;2024-03-07T09:05:21;102666.09;;;6.18;100.00
30421;BME280;17218;54.070;10.012;2024-03-07T09:07:49;102671.84;;;6.13;100.00
30421;BME280;17218;54.070;10.012;2024-03-07T09:10:15;102659.75;;;6.10;100.00
30421;BME280;17218;54.070;10.012;2024-03-07T09:12:43;102664.34;;;6.17;100.00
30421;BME280;17218;54.070;10.012;2024-03-07T09:15:10;102665.00;;;6.13;100.00
30421;BME280;17218;54.070;10.012;2024-03-07T09:17:37;102668.31;;;6.11;100.00
30421;BME280;17218;54.070;10.012;2024-03-07T09:20:05;102657.38;;;5.95;100.00
30421;BME280;17218;54.070;10.012;2024-03-07T09:22:34;102659.53;;;5.85;100.00
30421;BME280;17218;54.070;10.012;2024-03-07T09:25:01;102664.47;;;5.81;100.00
30421;BME280;17218;54.070;10.012;2024-03-07T09:27:27;102662.44;;;5.73;100.00
30421;BME280;17218;54.070;10.012;2024-03-07T09:29:54;102662.91;;;5.84;100.00
30421;BME280;17218;54.070;10.012;2024-03-07T09:32:20;102656.13;;;5.87;100.00
30421;BME280;17218;54.070;10.012;2024-03-07T09:34:47;102664.75;;;5.87;100.00
30421;BME280;17218;54.070;10.012;2024-03-07T09:37:16;102663.53;;;5.59;100.00
30421;BME280;17218;54.070;10.012;2024-03-07T09:39:43;102666.91;;;5.58;100.00
30421;BME280;17218;54.070;10.012;2024-03-07T09:42:09;102666.50;;;5.68;100.00
30421;BME280;17218;54.070;10.012;2024-03-07T09:44:38;102670.22;;;5.55;100.00
30421;BME280;17218;54.070;10.012;2024-03-07T09:47:07;102669.59;;;5.41;100.00
30421;BME280;17218;54.070;10.012;2024-03-07T09:49:34;102670.69;;;5.46;100.00
30421;BME280;17218;54.070;10.012;2024-03-07T09:52:04;102667.31;;;5.67;100.00
30421;BME280;17218;54.070;10.012;2024-03-07T09:54:35;102672.19;;;5.61;100.00
30421;BME280;17218;54.070;10.012;2024-03-07T09:57:02;102664.81;;;5.49;100.00
30421;BME280;17218;54.070;10.012;2024-03-07T09:59:32;102671.63;;;5.10;100.00
30421;BME280;17218;54.070;10.012;2024-03-07T10:02:03;102660.72;;;4.96;100.00
30421;BME280;17218;54.070;10.012;2024-03-07T10:04:38;102672.06;;;5.20;100.00
30421;BME280;17218;54.070;10.012;2024-03-07T10:07:06;102673.25;;;5.46;100.00
30421;BME280;17218;54.070;10.012;2024-03-07T10:09:38;102667.94;;;5.61;100.00
30421;BME280;17218;54.070;10.012;2024-03-07T10:12:06;102659.97;;;5.37;100.00
30421;BME280;17218;54.070;10.012;2024-03-07T10:14:35;102669.19;;;5.52;100.00
30421;BME280;17218;54.070;10.012;2024-03-07T10:17:02;102672.31;;;5.64;100.00
30421;BME280;17218;54.070;10.012;2024-03-07T10:19:30;102669.75;;;5.64;100.00
30421;BME280;17218;54.070;10.012;2024-03-07T10:21:57;102661.63;;;5.75;100.00
30421;BME280;17218;54.070;10.012;2024-03-07T10:24:26;102669.34;;;5.75;100.00
30421;BME280;17218;54.070;10.012;2024-03-07T10:26:54;102672.38;;;5.46;100.00
30421;BME280;17218;54.070;10.012;2024-03-07T10:29:23;102670.03;;;5.51;100.00
30421;BME280;17218;54.070;10.012;2024-03-07T10:31:50;102672.72;;;5.73;100.00
30421;BME280;17218;54.070;10.012;2024-03-07T10:34:16;102668.94;;;5.85;100.00
30421;BME280;17218;54.070;10.012;2024-03-07T10:36:43;102664.56;;;5.82;100.00
30421;BME280;17218;54.070;10.012;2024-03-07T10:39:11;102669.00;;;5.87;100.00
30421;BME280;17218;54.070;10.012;2024-03-07T10:41:44;102656.75;;;6.01;100.00
30421;BME280;17218;54.070;10.012;2024-03-07T10:44:17;102663.69;;;6.03;100.00
30421;BME280;17218;54.070;10.012;2024-03-07T10:46:46;102666.91;;;5.58;100.00
30421;BME280;17218;54.070;10.012;2024-03-07T10:49:19;102664.28;;;5.76;100.00
30421;BME280;17218;54.070;10.012;2024-03-07T10:51:54;102667.78;;;5.98;100.00
30421;BME280;17218;54.070;10.012;2024-03-07T10:54:29;102663.44;;;5.97;100.00
30421;BME280;17218;54.070;10.012;2024-03-07T10:57:11;102660.16;;;5.80;100.00
30421;BME280;17218;54.070;10.012;2024-03-07T10:59:50;102646.78;;;5.89;100.00
30421;BME280;17218;54.070;10.012;2024-03-07T11:02:27;102650.75;;;6.22;100.00
30421;BME280;17218;54.070;10.012;2024-03-07T11:04:58;102651.19;;;6.32;100.00
30421;BME280;17218;54.070;10.012;2024-03-07T11:07:26;102648.78;;;6.36;100.00
30421;BME280;17218;54.070;10.012;2024-03-07T11:09:54;102645.81;;;6.26;100.00
30421;BME280;17218;54.070;10.012;2024-03-07T11:12:23;102642.28;;;6.46;100.00
30421;BME280;17218;54.070;10.012;2024-03-07T11:14:55;102648.72;;;6.34;100.00
30421;BME280;17218;54.070;10.012;2024-03-07T11:17:23;102641.31;;;5.81;100.00
30421;BME280;17218;54.070;10.012;2024-03-07T11:19:50;102633.59;;;6.01;100.00
30421;BME280;17218;54.070;10.012;2024-03-07T11:22:29;102633.75;;;6.47;100.00
30421;BME280;17218;54.070;10.012;2024-03-07T11:25:00;102643.28;;;6.71;100.00
30421;BME280;17218;54.070;10.012;2024-03-07T11:27:31;102631.16;;;6.68;100.00
30421;BME280;17218;54.070;10.012;2024-03-07T11:30:06;102627.66;;;6.89;100.00
30421;BME280;17218;54.070;10.012;2024-03-07T11:32:35;102627.50;;;7.07;100.00
30421;BME280;17218;54.070;10.012;2024-03-07T11:35:04;102631.41;;;7.20;100.00
30421;BME280;17218;54.070;10.012;2024-03-07T11:37:39;102630.00;;;7.28;100.00
30421;BME280;17218;54.070;10.012;2024-03-07T11:40:10;102622.72;;;7.41;100.00
30421;BME280;17218;54.070;10.012;2024-03-07T11:42:44;102617.47;;;7.15;100.00
30421;BME280;17218;54.070;10.012;2024-03-07T11:45:13;102620.69;;;7.32;100.00
30421;BME280;17218;54.070;10.012;2024-03-07T11:47:50;102616.13;;;7.49;100.00
30421;BME280;17218;54.070;10.012;2024-03-07T11:50:18;102619.22;;;7.63;100.00
30421;BME280;17218;54.070;10.012;2024-03-07T11:52:45;102626.94;;;7.63;100.00
30421;BME280;17218;54.070;10.012;2024-03-07T11:55:11;102616.78;;;7.68;100.00
30421;BME280;17218;54.070;10.012;2024-03-07T11:57:38;102616.72;;;7.91;100.00
30421;BME280;17218;54.070;10.012;2024-03-07T12:00:10;102609.41;;;8.05;100.00
30421;BME280;17218;54.070;10.012;2024-03-07T12:02:40;102599.69;;;7.72;100.00
30421;BME280;17218;54.070;10.012;2024-03-07T12:05:09;102603.81;;;7.91;100.00
30421;BME280;17218;54.070;10.012;2024-03-07T12:07:35;102591.34;;;8.05;100.00
30421;BME280;17218;54.070;10.012;2024-03-07T12:10:04;102601.41;;;8.23;100.00
30421;BME280;17218;54.070;10.012;2024-03-07T12:12:31;102592.13;;;8.30;100.00
30421;BME280;17218;54.070;10.012;2024-03-07T12:14:58;102601.50;;;8.54;100.00
30421;BME280;17218;54.070;10.012;2024-03-07T12:17:25;102588.00;;;8.62;100.00
30421;BME280;17218;54.070;10.012;2024-03-07T12:19:56;102589.66;;;8.59;100.00
30421;BME280;17218;54.070;10.012;2024-03-07T12:22:26;102588.81;;;8.61;100.00
30421;BME280;17218;54.070;10.012;2024-03-07T12:25:00;102583.50;;;8.85;100.00
30421;BME280;17218;54.070;10.012;2024-03-07T12:27:28;102575.16;;;8.94;100.00
30421;BME280;17218;54.070;10.012;2024-03-07T12:29:55;102576.41;;;8.50;100.00
30421;BME280;17218;54.070;10.012;2024-03-07T12:32:20;102577.19;;;8.20;100.00
30421;BME280;17218;54.070;10.012;2024-03-07T12:34:47;102572.31;;;8.29;100.00
30421;BME280;17218;54.070;10.012;2024-03-07T12:37:15;102570.25;;;9.36;100.00
30421;BME280;17218;54.070;10.012;2024-03-07T12:39:42;102564.13;;;11.19;100.00
30421;BME280;17218;54.070;10.012;2024-03-07T12:42:12;102561.34;;;12.64;100.00
30421;BME280;17218;54.070;10.012;2024-03-07T12:44:40;102545.25;;;12.98;100.00
30421;BME280;17218;54.070;10.012;2024-03-07T12:47:09;102557.00;;;13.44;100.00
30421;BME280;17218;54.070;10.012;2024-03-07T12:49:36;102547.19;;;14.13;100.00